KCNM/CNM METAR and TAF weather

Enter ICAO airport designator
Station Type Date Time Source
KCNM METAR 2019/02/23 02:53 UTC NOAA

KCNM 230253Z AUTO 26026G40KT 4SM HZ OVC110 15/M03 A2963 RMK AO2 PK WND 26040/0253 WSHFT 0236 SLP009 60000 T01501028 53004


Station Type Date Time Source
KCNM Decoded METAR 2019/02/23 02:53 UTC NOAA

CARLSBAD CAVERN CITY, NM, United States (KCNM) 32-20N 104-16W 985M
Feb 22, 2019 - 09:53 PM EST / 2019.02.23 0253 UTC
Wind: from the W (260 degrees) at 30 MPH (26 KT) gusting to 46 MPH (40 KT):0
Visibility: 4 mile(s):0
Sky conditions: overcast
Weather: haze
Temperature: 59.0 F (15.0 C)
Dew Point: 27.0 F (-2.8 C)
Relative Humidity: 29%
Pressure (altimeter): 29.63 in. Hg (1003 hPa)
Pressure tendency: 0.01 inches (0.4 hPa) higher than three hours ago
ob: KCNM 230253Z AUTO 26026G40KT 4SM HZ OVC110 15/M03 A2963 RMK AO2 PK WND 26040/0253 WSHFT 0236 SLP009 60000 T01501028 53004
cycle: 3

Station Type Date Time Source
KCNM TAF 2019/02/23 03:59 UTC NOAA

TAF
AMD KCNM 230259Z 2303/2324 25032G42KT 4SM BLDU SCT090
TEMPO 2314/2318 2SM BLDU


Example: see airport list